createdAt,value
2019-03-10T00:00:29.042Z,8.27
2019-03-10T00:02:57.330Z,8.32
2019-03-10T00:05:25.872Z,8.29
2019-03-10T00:07:54.261Z,8.29
2019-03-10T00:10:22.559Z,8.30
2019-03-10T00:12:51.213Z,8.30
2019-03-10T00:15:19.516Z,8.35
2019-03-10T00:17:47.827Z,8.30
2019-03-10T00:20:16.200Z,8.33
2019-03-10T00:22:44.517Z,8.32
2019-03-10T00:25:12.981Z,8.32
2019-03-10T00:27:41.300Z,8.33
2019-03-10T00:30:14.503Z,8.32
2019-03-10T00:32:43.182Z,8.32
2019-03-10T00:35:12.021Z,8.31
2019-03-10T00:37:40.636Z,8.35
2019-03-10T00:40:21.002Z,8.33
2019-03-10T00:42:55.461Z,8.33
2019-03-10T00:46:01.844Z,8.35
2019-03-10T00:48:55.981Z,8.35
2019-03-10T00:51:30.246Z,8.35
2019-03-10T00:53:58.873Z,8.36
2019-03-10T00:56:27.429Z,8.35
2019-03-10T00:58:55.756Z,8.37
2019-03-10T01:01:24.059Z,8.39
2019-03-10T01:03:52.362Z,8.39
2019-03-10T01:06:20.663Z,8.41
2019-03-10T01:08:48.966Z,8.37
2019-03-10T01:11:17.625Z,8.37
2019-03-10T01:13:45.983Z,8.35
2019-03-10T01:16:14.596Z,8.34
2019-03-10T01:18:42.968Z,8.36
2019-03-10T01:21:11.442Z,8.37
2019-03-10T01:23:40.001Z,8.37
2019-03-10T01:26:08.611Z,8.40
2019-03-10T01:28:36.901Z,8.41
2019-03-10T01:31:23.564Z,8.40
2019-03-10T01:33:58.042Z,8.41
2019-03-10T01:36:25.308Z,8.44
2019-03-10T01:38:53.608Z,8.41
2019-03-10T01:41:22.338Z,8.42
2019-03-10T01:43:51.038Z,8.42
2019-03-10T01:46:19.330Z,8.43
2019-03-10T01:48:47.642Z,8.44
2019-03-10T01:51:15.940Z,8.46
2019-03-10T01:53:44.273Z,8.47
2019-03-10T01:56:12.562Z,8.46
2019-03-10T01:58:40.866Z,8.44
2019-03-10T02:01:09.166Z,8.42
2019-03-10T02:03:37.486Z,8.39
2019-03-10T02:06:05.788Z,8.39
2019-03-10T02:08:34.093Z,8.38
2019-03-10T02:11:02.406Z,8.38
2019-03-10T02:13:30.799Z,8.38
2019-03-10T02:15:59.112Z,8.39
2019-03-10T02:18:27.412Z,8.37
2019-03-10T02:20:55.715Z,8.36
2019-03-10T02:23:24.011Z,8.36
2019-03-10T02:25:52.636Z,8.36
2019-03-10T02:28:20.937Z,8.35
2019-03-10T02:30:49.605Z,8.37
2019-03-10T02:33:18.107Z,8.40
2019-03-10T02:35:46.417Z,8.41
2019-03-10T02:38:14.944Z,8.38
2019-03-10T02:40:43.674Z,8.38
2019-03-10T02:43:11.981Z,8.38
2019-03-10T02:45:40.379Z,8.38
2019-03-10T02:48:08.695Z,8.38
2019-03-10T02:50:36.990Z,8.41
2019-03-10T02:53:05.303Z,8.43
2019-03-10T02:55:33.628Z,8.46
2019-03-10T02:58:02.298Z,8.48
2019-03-10T03:00:30.598Z,8.49
2019-03-10T03:02:58.909Z,8.49
2019-03-10T03:05:27.222Z,8.50
2019-03-10T03:07:55.525Z,8.47
2019-03-10T03:10:23.819Z,8.45
2019-03-10T03:12:52.118Z,8.47
2019-03-10T03:15:20.436Z,8.45
2019-03-10T03:17:48.721Z,8.41
2019-03-10T03:20:17.166Z,8.37
2019-03-10T03:22:45.450Z,8.36
2019-03-10T03:25:13.843Z,8.37
2019-03-10T03:27:42.409Z,8.23
2019-03-10T03:30:13.873Z,8.16
2019-03-10T03:32:42.179Z,8.10
2019-03-10T03:35:33.323Z,8.06
2019-03-10T03:38:01.626Z,8.07
2019-03-10T03:40:30.600Z,8.08
2019-03-10T03:42:59.276Z,8.07
2019-03-10T03:45:27.594Z,8.07
2019-03-10T03:47:56.175Z,8.08
2019-03-10T03:50:24.469Z,8.05
2019-03-10T03:52:53.138Z,8.02
2019-03-10T03:55:21.716Z,8.00
2019-03-10T03:57:50.030Z,7.95
2019-03-10T04:00:20.019Z,7.94
2019-03-10T04:02:48.337Z,7.92
2019-03-10T04:05:16.618Z,7.88
2019-03-10T04:07:44.920Z,7.89
2019-03-10T04:10:13.539Z,7.91
2019-03-10T04:12:41.843Z,7.91
2019-03-10T04:15:10.154Z,7.88
2019-03-10T04:17:38.866Z,7.87
2019-03-10T04:20:09.362Z,7.86
2019-03-10T04:22:37.692Z,7.86
2019-03-10T04:25:07.372Z,7.85
2019-03-10T04:27:35.976Z,7.85
2019-03-10T04:30:06.830Z,7.86
2019-03-10T04:32:35.131Z,7.85
2019-03-10T04:35:03.716Z,7.84
2019-03-10T04:37:32.015Z,7.84
2019-03-10T04:40:00.322Z,7.84
2019-03-10T04:42:28.616Z,7.83
2019-03-10T04:44:56.933Z,7.81
2019-03-10T04:47:25.220Z,7.79
2019-03-10T04:49:53.830Z,7.78
2019-03-10T04:52:22.120Z,7.76
2019-03-10T04:55:26.001Z,7.80
2019-03-10T04:57:55.941Z,7.74
2019-03-10T05:00:24.456Z,7.74
2019-03-10T05:02:52.747Z,7.72
2019-03-10T05:05:21.048Z,7.72
2019-03-10T05:07:49.646Z,7.70
2019-03-10T05:10:17.950Z,7.70
2019-03-10T05:12:46.254Z,7.69
2019-03-10T05:15:14.883Z,7.68
2019-03-10T05:17:43.207Z,7.68
2019-03-10T05:20:11.847Z,7.69
2019-03-10T05:22:40.160Z,7.68
2019-03-10T05:25:17.579Z,7.67
2019-03-10T05:27:45.876Z,7.67
2019-03-10T05:30:14.260Z,7.67
2019-03-10T05:32:42.572Z,7.64
2019-03-10T05:35:10.857Z,7.64
2019-03-10T05:37:39.194Z,7.62
2019-03-10T05:40:08.232Z,7.62
2019-03-10T05:42:36.593Z,7.61
2019-03-10T05:45:08.648Z,7.62
2019-03-10T05:47:36.944Z,7.61
2019-03-10T05:50:06.187Z,7.62
2019-03-10T05:52:34.520Z,7.62
2019-03-10T05:55:02.828Z,7.62
2019-03-10T05:57:31.120Z,7.61
2019-03-10T05:59:59.748Z,7.61
2019-03-10T06:02:28.024Z,7.61
2019-03-10T06:04:56.324Z,7.62
2019-03-10T06:07:24.663Z,7.62
2019-03-10T06:09:52.947Z,7.61
2019-03-10T06:12:21.239Z,7.60
2019-03-10T06:14:49.525Z,7.60
2019-03-10T06:17:17.862Z,7.59
2019-03-10T06:19:46.279Z,7.60
2019-03-10T06:22:14.574Z,7.57
2019-03-10T06:24:42.872Z,7.58
2019-03-10T06:27:11.175Z,7.55
2019-03-10T06:29:39.474Z,7.56
2019-03-10T06:32:07.786Z,7.54
2019-03-10T06:34:36.148Z,7.53
2019-03-10T06:37:04.468Z,7.54
2019-03-10T06:39:32.792Z,7.53
2019-03-10T06:42:01.093Z,7.51
2019-03-10T06:44:29.383Z,7.49
2019-03-10T06:46:57.664Z,7.47
2019-03-10T06:49:25.993Z,7.46
2019-03-10T06:51:54.286Z,7.45
2019-03-10T06:54:22.946Z,7.45
2019-03-10T06:56:51.253Z,7.43
2019-03-10T06:59:19.548Z,7.44
2019-03-10T07:01:47.899Z,7.43
2019-03-10T07:04:16.555Z,7.40
2019-03-10T07:06:44.857Z,7.38
2019-03-10T07:09:13.511Z,7.38
2019-03-10T07:11:42.088Z,7.36
2019-03-10T07:14:10.383Z,7.35
2019-03-10T07:16:38.711Z,7.36
2019-03-10T07:19:07.027Z,7.38
2019-03-10T07:21:35.339Z,7.42
2019-03-10T07:24:04.209Z,7.44
2019-03-10T07:26:32.532Z,7.45
2019-03-10T07:29:02.467Z,7.45
2019-03-10T07:31:32.420Z,7.45
2019-03-10T07:34:11.109Z,7.43
2019-03-10T07:36:41.340Z,7.44
2019-03-10T07:39:14.238Z,7.46
2019-03-10T07:42:00.489Z,7.47
2019-03-10T07:44:46.379Z,7.44
2019-03-10T07:47:31.324Z,7.37
2019-03-10T07:50:10.223Z,7.33
2019-03-10T07:52:56.450Z,7.30
2019-03-10T07:55:26.384Z,7.25
2019-03-10T07:58:05.654Z,7.18
2019-03-10T08:00:35.597Z,7.17
2019-03-10T08:03:11.789Z,7.13
2019-03-10T08:05:41.725Z,7.13
2019-03-10T08:08:17.703Z,7.20
2019-03-10T08:10:50.523Z,7.28
2019-03-10T08:13:26.213Z,7.32
2019-03-10T08:16:12.117Z,7.25
2019-03-10T08:18:44.872Z,7.27
2019-03-10T08:21:17.572Z,7.30
2019-03-10T08:23:50.195Z,7.36
2019-03-10T08:26:23.094Z,7.36
2019-03-10T08:28:56.291Z,7.31
2019-03-10T08:31:26.220Z,7.24
2019-03-10T08:33:56.134Z,7.13
2019-03-10T08:36:42.401Z,7.13
2019-03-10T08:39:18.266Z,7.15
2019-03-10T08:41:53.924Z,7.26
2019-03-10T08:44:42.183Z,7.33
2019-03-10T08:47:12.438Z,7.40
2019-03-10T08:49:45.688Z,7.32
2019-03-10T08:52:15.945Z,7.29
2019-03-10T08:54:54.883Z,7.23
2019-03-10T08:57:36.790Z,7.29
2019-03-10T09:00:12.871Z,7.34
2019-03-10T09:02:51.986Z,7.41
2019-03-10T09:05:36.926Z,7.49
2019-03-10T09:08:23.030Z,7.56
2019-03-10T09:10:56.218Z,7.54
2019-03-10T09:13:26.145Z,7.59
2019-03-10T09:15:56.078Z,7.59
2019-03-10T09:18:28.450Z,7.61
2019-03-10T09:21:04.698Z,7.65
2019-03-10T09:23:46.647Z,7.74
2019-03-10T09:26:25.364Z,7.84
2019-03-10T09:29:04.088Z,7.96
2019-03-10T09:31:34.023Z,8.13
2019-03-10T09:34:06.951Z,8.15
2019-03-10T09:36:46.293Z,8.08
2019-03-10T09:39:32.678Z,8.02
2019-03-10T09:42:12.308Z,8.07
2019-03-10T09:44:44.904Z,8.15
2019-03-10T09:47:20.944Z,8.22
2019-03-10T09:49:59.634Z,8.35
2019-03-10T09:52:29.883Z,8.51
2019-03-10T09:55:14.884Z,8.76
2019-03-10T09:57:44.843Z,8.81
2019-03-10T10:00:23.523Z,8.74
2019-03-10T10:02:53.466Z,8.59
2019-03-10T10:05:26.087Z,8.58
2019-03-10T10:07:56.029Z,8.74
2019-03-10T10:10:44.353Z,8.84
2019-03-10T10:13:30.559Z,8.73
2019-03-10T10:16:15.853Z,8.57
2019-03-10T10:18:45.803Z,8.38
2019-03-10T10:21:32.124Z,8.26
2019-03-10T10:24:02.065Z,8.21
2019-03-10T10:26:41.276Z,8.25
2019-03-10T10:29:27.681Z,8.29
2019-03-10T10:32:00.575Z,8.27
2019-03-10T10:34:32.931Z,8.26
2019-03-10T10:37:05.571Z,8.35
2019-03-10T10:39:35.526Z,8.52
2019-03-10T10:42:11.179Z,8.74
2019-03-10T10:44:56.215Z,8.88
2019-03-10T10:47:32.514Z,8.95
2019-03-10T10:50:20.713Z,8.98
2019-03-10T10:53:02.870Z,9.00
2019-03-10T10:55:41.902Z,8.96
2019-03-10T10:58:14.879Z,8.95
2019-03-10T11:00:56.668Z,8.90
2019-03-10T11:03:35.259Z,8.86
2019-03-10T11:06:11.299Z,8.93
2019-03-10T11:08:46.947Z,9.10
2019-03-10T11:11:33.185Z,9.25
2019-03-10T11:14:15.285Z,9.34
2019-03-10T11:16:45.544Z,9.48
2019-03-10T11:19:15.650Z,9.69
2019-03-10T11:21:48.490Z,9.84
2019-03-10T11:24:27.635Z,10.02
2019-03-10T11:26:57.571Z,10.22
2019-03-10T11:29:33.191Z,10.44
2019-03-10T11:32:09.118Z,10.68
2019-03-10T11:34:42.005Z,10.88
2019-03-10T11:37:20.737Z,11.01
2019-03-10T11:39:50.951Z,11.05
2019-03-10T11:42:39.221Z,11.10
2019-03-10T11:45:23.391Z,11.19
2019-03-10T11:48:05.210Z,11.29
2019-03-10T11:50:35.162Z,11.47
2019-03-10T11:53:19.201Z,11.64
2019-03-10T11:55:45.676Z,11.71
2019-03-10T11:58:18.480Z,11.74
2019-03-10T12:00:48.525Z,11.85
2019-03-10T12:03:18.507Z,11.83
2019-03-10T12:05:48.413Z,12.02
2019-03-10T12:08:21.263Z,12.05
2019-03-10T12:10:49.829Z,11.96
2019-03-10T12:13:18.121Z,11.74
2019-03-10T12:15:46.507Z,11.39
2019-03-10T12:18:14.828Z,11.11
2019-03-10T12:20:43.143Z,10.90
2019-03-10T12:23:11.436Z,10.78
2019-03-10T12:25:39.767Z,10.82
2019-03-10T12:28:08.140Z,10.89
2019-03-10T12:30:36.451Z,10.95
2019-03-10T12:33:05.073Z,11.07
2019-03-10T12:35:34.686Z,11.19
2019-03-10T12:38:03.470Z,11.23
2019-03-10T12:40:31.772Z,11.30
2019-03-10T12:43:00.076Z,11.29
2019-03-10T12:45:28.377Z,11.26
2019-03-10T12:47:56.687Z,11.34
2019-03-10T12:50:25.076Z,11.34
2019-03-10T12:52:53.392Z,11.21
2019-03-10T12:55:21.696Z,11.02
2019-03-10T12:57:50.298Z,11.02
2019-03-10T13:00:18.660Z,11.04
2019-03-10T13:02:47.355Z,11.22
2019-03-10T13:05:15.869Z,11.38
2019-03-10T13:07:44.169Z,11.63
2019-03-10T13:10:12.899Z,11.75
2019-03-10T13:12:41.303Z,11.59
2019-03-10T13:15:11.654Z,11.54
2019-03-10T13:17:39.941Z,11.52
2019-03-10T13:20:10.461Z,11.63
2019-03-10T13:22:38.819Z,11.71
2019-03-10T13:25:10.425Z,11.62
2019-03-10T13:27:38.803Z,11.52
2019-03-10T13:30:09.634Z,11.44
2019-03-10T13:32:37.976Z,11.23
2019-03-10T13:35:06.852Z,11.10
2019-03-10T13:37:35.176Z,10.93
2019-03-10T13:40:05.418Z,10.86
2019-03-10T13:42:33.741Z,10.76
2019-03-10T13:45:02.294Z,10.64
2019-03-10T13:47:30.595Z,10.50
2019-03-10T13:49:59.152Z,10.54
2019-03-10T13:52:27.457Z,10.71
2019-03-10T13:54:55.756Z,10.80
2019-03-10T13:57:24.058Z,10.90
2019-03-10T13:59:52.363Z,10.94
2019-03-10T14:02:20.646Z,10.96
2019-03-10T14:04:49.438Z,10.91
2019-03-10T14:07:18.080Z,10.82
2019-03-10T14:09:46.692Z,11.01
2019-03-10T14:12:15.200Z,11.05
2019-03-10T14:14:43.506Z,11.02
2019-03-10T14:17:12.094Z,10.91
2019-03-10T14:19:40.409Z,10.74
2019-03-10T14:22:08.698Z,10.79
2019-03-10T14:24:37.369Z,10.79
2019-03-10T14:27:05.741Z,10.68
2019-03-10T14:29:34.050Z,10.45
2019-03-10T14:32:02.338Z,10.27
2019-03-10T14:34:31.020Z,10.21
2019-03-10T14:36:59.301Z,10.18
2019-03-10T14:39:27.659Z,10.28
2019-03-10T14:41:55.959Z,10.21
2019-03-10T14:44:24.316Z,10.09
2019-03-10T14:46:52.634Z,10.12
2019-03-10T14:49:23.492Z,10.10
2019-03-10T14:51:51.185Z,10.06
2019-03-10T14:54:19.484Z,9.93
2019-03-10T14:56:47.788Z,9.77
2019-03-10T14:59:16.090Z,9.32
2019-03-10T15:01:44.395Z,9.21
2019-03-10T15:04:12.954Z,9.11
2019-03-10T15:06:41.558Z,9.09
2019-03-10T15:09:09.831Z,9.14
2019-03-10T15:11:38.138Z,9.16
2019-03-10T15:14:06.441Z,9.09
2019-03-10T15:16:35.056Z,9.09
2019-03-10T15:19:03.370Z,8.92
2019-03-10T15:21:31.931Z,8.92
2019-03-10T15:24:00.224Z,8.94
2019-03-10T15:26:28.611Z,8.84
2019-03-10T15:28:56.904Z,8.93
2019-03-10T15:31:29.779Z,8.88
2019-03-10T15:33:58.450Z,8.97
2019-03-10T15:36:26.760Z,8.90
2019-03-10T15:38:55.117Z,8.95
2019-03-10T15:41:23.458Z,8.89
2019-03-10T15:43:51.730Z,8.78
2019-03-10T15:46:20.123Z,8.83
2019-03-10T15:48:48.452Z,8.77
2019-03-10T15:51:16.767Z,8.67
2019-03-10T15:53:45.042Z,8.71
2019-03-10T15:56:13.377Z,8.71
2019-03-10T15:58:41.686Z,8.81
2019-03-10T16:01:10.059Z,8.84
2019-03-10T16:03:38.651Z,8.62
2019-03-10T16:06:07.138Z,8.59
2019-03-10T16:08:35.502Z,8.57
2019-03-10T16:11:04.062Z,8.56
2019-03-10T16:13:32.689Z,8.56
2019-03-10T16:16:01.294Z,8.59
2019-03-10T16:18:29.599Z,8.62
2019-03-10T16:20:57.944Z,8.47
2019-03-10T16:23:26.238Z,8.27
2019-03-10T16:25:54.527Z,8.14
2019-03-10T16:28:22.863Z,8.09
2019-03-10T16:30:51.390Z,7.94
2019-03-10T16:33:19.722Z,7.74
2019-03-10T16:35:48.314Z,7.70
2019-03-10T16:38:16.631Z,7.52
2019-03-10T16:40:44.938Z,7.12
2019-03-10T16:43:13.237Z,6.85
2019-03-10T16:45:41.827Z,6.70
2019-03-10T16:48:10.132Z,6.59
2019-03-10T16:50:38.426Z,6.54
2019-03-10T16:53:06.707Z,6.49
2019-03-10T16:55:34.999Z,6.41
2019-03-10T16:58:03.284Z,6.24
2019-03-10T17:00:31.857Z,6.11
2019-03-10T17:03:00.497Z,6.05
2019-03-10T17:05:29.045Z,6.04
2019-03-10T17:07:57.356Z,6.03
2019-03-10T17:10:26.850Z,6.04
2019-03-10T17:12:55.203Z,6.11
2019-03-10T17:15:24.362Z,6.04
2019-03-10T17:17:52.808Z,5.90
2019-03-10T17:20:21.294Z,5.89
2019-03-10T17:22:49.603Z,5.98
2019-03-10T17:25:18.232Z,5.90
2019-03-10T17:27:46.570Z,5.97
2019-03-10T17:30:17.113Z,5.97
2019-03-10T17:32:45.637Z,5.91
2019-03-10T17:35:14.473Z,5.86
2019-03-10T17:37:43.087Z,5.85
2019-03-10T17:40:16.517Z,5.89
2019-03-10T17:42:44.832Z,5.84
2019-03-10T17:45:17.958Z,5.88
2019-03-10T17:47:46.318Z,5.84
2019-03-10T17:50:16.942Z,5.81
2019-03-10T17:52:45.465Z,5.71
2019-03-10T17:55:19.977Z,5.74
2019-03-10T17:57:48.273Z,5.83
2019-03-10T18:00:28.683Z,5.89
2019-03-10T18:02:57.013Z,5.96
2019-03-10T18:05:25.391Z,5.99
2019-03-10T18:07:53.680Z,5.84
2019-03-10T18:10:22.062Z,5.84
2019-03-10T18:12:50.372Z,5.94
2019-03-10T18:15:19.486Z,5.99
2019-03-10T18:17:47.950Z,6.02
2019-03-10T18:20:21.790Z,6.02
2019-03-10T18:22:50.110Z,5.96
2019-03-10T18:25:18.648Z,5.81
2019-03-10T18:27:47.043Z,5.83
2019-03-10T18:30:17.965Z,5.85
2019-03-10T18:32:46.510Z,5.91
2019-03-10T18:35:15.154Z,5.98
2019-03-10T18:37:43.698Z,6.06
2019-03-10T18:40:21.114Z,6.10
2019-03-10T18:42:49.527Z,6.14
2019-03-10T18:45:18.745Z,6.12
2019-03-10T18:47:47.372Z,5.98
2019-03-10T18:50:21.639Z,5.91
2019-03-10T18:52:50.065Z,5.82
2019-03-10T18:55:18.983Z,5.84
2019-03-10T18:57:47.496Z,5.80
2019-03-10T19:00:29.514Z,5.79
2019-03-10T19:03:36.010Z,5.79
2019-03-10T19:06:04.706Z,5.77
2019-03-10T19:08:33.392Z,5.66
2019-03-10T19:11:02.135Z,5.66
2019-03-10T19:13:30.513Z,5.60
2019-03-10T19:15:58.854Z,5.35
2019-03-10T19:18:27.140Z,5.29
2019-03-10T19:20:55.463Z,5.28
2019-03-10T19:23:23.764Z,5.26
2019-03-10T19:25:52.075Z,5.33
2019-03-10T19:28:20.354Z,5.39
2019-03-10T19:30:48.670Z,5.39
2019-03-10T19:33:17.270Z,5.45
2019-03-10T19:35:45.590Z,5.53
2019-03-10T19:38:13.991Z,5.55
2019-03-10T19:40:42.393Z,5.56
2019-03-10T19:43:10.770Z,5.46
2019-03-10T19:45:39.535Z,5.41
2019-03-10T19:48:08.250Z,5.36
2019-03-10T19:50:36.650Z,5.16
2019-03-10T19:53:05.392Z,5.01
2019-03-10T19:55:33.740Z,4.90
2019-03-10T19:58:02.478Z,4.93
2019-03-10T20:00:30.893Z,4.86
2019-03-10T20:02:59.280Z,4.86
2019-03-10T20:05:27.689Z,4.83
2019-03-10T20:07:56.129Z,4.72
2019-03-10T20:10:24.599Z,4.67
2019-03-10T20:12:52.997Z,4.73
2019-03-10T20:15:23.449Z,4.70
2019-03-10T20:17:51.815Z,4.72
2019-03-10T20:20:31.327Z,4.73
2019-03-10T20:23:01.170Z,4.71
2019-03-10T20:25:29.700Z,4.68
2019-03-10T20:27:57.980Z,4.63
2019-03-10T20:30:27.335Z,4.67
2019-03-10T20:32:55.740Z,4.55
2019-03-10T20:35:24.091Z,4.64
2019-03-10T20:37:52.736Z,4.77
2019-03-10T20:40:22.840Z,4.90
2019-03-10T20:42:51.135Z,5.07
2019-03-10T20:45:19.794Z,5.20
2019-03-10T20:47:48.267Z,5.12
2019-03-10T20:50:17.868Z,5.06
2019-03-10T20:52:46.140Z,4.99
2019-03-10T20:55:15.363Z,4.87
2019-03-10T20:57:44.181Z,4.87
2019-03-10T21:00:18.695Z,4.83
2019-03-10T21:02:47.096Z,4.91
2019-03-10T21:05:15.458Z,4.97
2019-03-10T21:07:44.132Z,5.00
2019-03-10T21:10:15.506Z,4.98
2019-03-10T21:12:47.107Z,4.94
2019-03-10T21:15:20.129Z,4.88
2019-03-10T21:17:48.536Z,4.83
2019-03-10T21:20:18.057Z,4.78
2019-03-10T21:22:46.357Z,4.73
2019-03-10T21:25:28.327Z,4.68
2019-03-10T21:27:56.579Z,4.65
2019-03-10T21:30:26.703Z,4.58
2019-03-10T21:32:55.273Z,4.52
2019-03-10T21:35:23.563Z,4.49
2019-03-10T21:37:52.134Z,4.44
2019-03-10T21:40:23.363Z,4.37
2019-03-10T21:43:10.563Z,4.37
2019-03-10T21:45:38.855Z,4.28
2019-03-10T21:48:07.169Z,4.30
2019-03-10T21:50:35.465Z,4.31
2019-03-10T21:53:03.768Z,4.32
2019-03-10T21:55:32.050Z,4.32
2019-03-10T21:58:00.369Z,4.29
2019-03-10T22:00:28.768Z,4.26
2019-03-10T22:02:57.077Z,4.29
2019-03-10T22:05:25.381Z,4.32
2019-03-10T22:07:53.948Z,4.33
2019-03-10T22:10:27.455Z,4.30
2019-03-10T22:12:52.650Z,4.26
2019-03-10T22:15:21.431Z,4.29
2019-03-10T22:17:50.374Z,4.30
2019-03-10T22:20:22.077Z,4.31
2019-03-10T22:22:50.421Z,4.38
2019-03-10T22:25:18.753Z,4.36
2019-03-10T22:27:59.229Z,4.36
2019-03-10T22:30:28.992Z,4.34
2019-03-10T22:32:57.447Z,4.29
2019-03-10T22:35:25.801Z,4.27
2019-03-10T22:37:54.114Z,4.34
2019-03-10T22:40:22.493Z,4.39
2019-03-10T22:42:51.995Z,4.23
2019-03-10T22:45:21.335Z,4.12
2019-03-10T22:51:02.606Z,4.06
2019-03-10T22:53:31.112Z,4.08
2019-03-10T22:55:59.421Z,4.05
2019-03-10T22:58:27.696Z,4.03
2019-03-10T23:00:56.956Z,4.01
2019-03-10T23:03:25.252Z,4.04
2019-03-10T23:05:53.740Z,4.05
2019-03-10T23:08:33.040Z,4.02
2019-03-10T23:11:02.096Z,4.02
2019-03-10T23:13:33.032Z,4.03
2019-03-10T23:16:01.787Z,4.03
2019-03-10T23:18:30.100Z,4.06
2019-03-10T23:20:58.396Z,4.05
2019-03-10T23:23:26.724Z,4.04
2019-03-10T23:25:55.005Z,4.04
2019-03-10T23:28:25.991Z,4.08
2019-03-10T23:30:54.631Z,4.13
2019-03-10T23:33:23.199Z,4.17
2019-03-10T23:35:51.507Z,4.19
2019-03-10T23:38:19.894Z,4.25
2019-03-10T23:40:48.201Z,4.29
2019-03-10T23:43:16.533Z,4.32
2019-03-10T23:45:44.898Z,4.34
2019-03-10T23:48:13.486Z,4.40
2019-03-10T23:50:42.152Z,4.47
2019-03-10T23:53:10.436Z,4.53
2019-03-10T23:55:38.782Z,4.60
2019-03-10T23:58:07.064Z,4.54
